createdAt,value
2022-12-03T00:01:51.574Z,47.47
2022-12-03T00:04:56.408Z,47.93
2022-12-03T00:08:00.873Z,47.09
2022-12-03T00:11:05.576Z,47.47
2022-12-03T00:14:09.735Z,46.72
2022-12-03T00:17:14.611Z,45.83
2022-12-03T00:20:25.653Z,45.64
2022-12-03T00:23:29.911Z,46.71
2022-12-03T00:26:34.362Z,46.72
2022-12-03T00:29:38.649Z,46.38
2022-12-03T00:32:43.277Z,45.84
2022-12-03T00:35:47.853Z,45.99
2022-12-03T00:38:52.068Z,46.31
2022-12-03T00:41:56.339Z,45.70
2022-12-03T00:45:00.988Z,46.43
2022-12-03T00:48:07.378Z,47.27
2022-12-03T00:51:11.775Z,47.39
2022-12-03T00:54:16.600Z,46.81
2022-12-03T00:57:20.873Z,47.28
2022-12-03T01:00:26.099Z,47.38
2022-12-03T01:03:30.530Z,47.14
2022-12-03T01:06:34.923Z,46.18
2022-12-03T01:09:39.282Z,45.97
2022-12-03T01:12:43.788Z,45.56
2022-12-03T01:15:48.324Z,46.42
2022-12-03T01:18:53.583Z,45.84
2022-12-03T01:21:57.991Z,45.84
2022-12-03T01:25:02.638Z,46.37
2022-12-03T01:28:07.520Z,46.39
2022-12-03T01:31:30.835Z,47.12
2022-12-03T01:34:37.443Z,47.10
2022-12-03T01:37:41.869Z,47.18
2022-12-03T01:40:46.330Z,47.84
2022-12-03T01:43:51.494Z,47.77
2022-12-03T01:46:59.022Z,47.62
2022-12-03T01:50:15.752Z,47.52
2022-12-03T01:53:20.662Z,47.50
2022-12-03T01:56:25.387Z,47.69
2022-12-03T01:59:39.790Z,47.28
2022-12-03T02:02:45.834Z,47.03
2022-12-03T02:05:50.409Z,47.46
2022-12-03T02:09:00.404Z,47.67
2022-12-03T02:12:05.159Z,47.53
2022-12-03T02:15:11.287Z,47.36
2022-12-03T02:18:15.891Z,47.41
2022-12-03T02:21:29.008Z,46.86
2022-12-03T02:24:51.093Z,47.33
2022-12-03T02:27:56.919Z,46.34
2022-12-03T02:31:00.686Z,48.64
2022-12-03T02:34:09.348Z,47.84
2022-12-03T02:37:22.246Z,48.36
2022-12-03T02:40:31.313Z,47.29
2022-12-03T02:43:35.807Z,47.64
2022-12-03T02:46:40.654Z,48.08
2022-12-03T02:49:45.492Z,49.44
2022-12-03T02:52:50.544Z,49.92
2022-12-03T02:55:57.249Z,49.21
2022-12-03T02:59:04.660Z,51.18
2022-12-03T03:02:12.289Z,52.75
2022-12-03T03:05:17.701Z,53.67
2022-12-03T03:08:22.171Z,53.48
2022-12-03T03:11:27.107Z,52.14
2022-12-03T03:14:32.255Z,54.32
2022-12-03T03:17:37.128Z,54.05
2022-12-03T03:20:42.350Z,53.80
2022-12-03T03:23:46.705Z,55.25
2022-12-03T03:26:51.429Z,55.51
2022-12-03T03:29:58.433Z,55.41
2022-12-03T03:33:03.069Z,54.72
2022-12-03T03:36:08.901Z,56.55
2022-12-03T03:39:13.122Z,57.96
2022-12-03T03:42:18.013Z,58.13
2022-12-03T03:45:27.316Z,59.66
2022-12-03T03:48:37.569Z,56.91
2022-12-03T03:51:42.432Z,59.01
2022-12-03T03:54:47.325Z,57.90
2022-12-03T03:57:52.010Z,56.73
2022-12-03T04:00:57.090Z,56.80
2022-12-03T04:04:01.826Z,55.95
2022-12-03T04:07:06.152Z,57.10
2022-12-03T04:10:30.513Z,56.80
2022-12-03T04:13:34.700Z,56.89
2022-12-03T04:16:38.894Z,57.88
2022-12-03T04:19:43.279Z,57.19
2022-12-03T04:22:47.673Z,61.39
2022-12-03T04:26:10.514Z,61.04
2022-12-03T04:29:15.124Z,59.45
2022-12-03T04:32:37.533Z,62.23
2022-12-03T04:35:44.933Z,62.90
2022-12-03T04:38:49.263Z,61.84
2022-12-03T04:41:53.504Z,61.29
2022-12-03T04:44:59.656Z,58.01
2022-12-03T04:48:04.172Z,57.96
2022-12-03T04:51:08.452Z,56.83
2022-12-03T04:54:12.683Z,56.68
2022-12-03T04:57:16.949Z,60.29
2022-12-03T05:00:21.573Z,63.56
2022-12-03T05:03:25.998Z,63.84
2022-12-03T05:06:30.614Z,62.87
2022-12-03T05:09:34.916Z,63.98
2022-12-03T05:12:39.209Z,64.11
2022-12-03T05:15:43.567Z,62.12
2022-12-03T05:18:47.847Z,62.05
2022-12-03T05:21:52.468Z,62.71
2022-12-03T05:24:56.875Z,63.75
2022-12-03T05:28:01.502Z,64.21
2022-12-03T05:31:07.964Z,65.03
2022-12-03T05:34:12.765Z,65.55
2022-12-03T05:37:17.186Z,64.03
2022-12-03T05:40:22.669Z,63.43
2022-12-03T05:43:26.920Z,63.73
2022-12-03T05:46:31.477Z,64.38
2022-12-03T05:49:35.950Z,63.35
2022-12-03T05:52:40.617Z,62.72
2022-12-03T05:55:45.264Z,63.30
2022-12-03T05:58:49.745Z,63.92
2022-12-03T06:01:54.484Z,63.21
2022-12-03T06:04:58.759Z,64.55
2022-12-03T06:08:03.602Z,63.58
2022-12-03T06:11:08.165Z,66.84
2022-12-03T06:14:12.502Z,67.07
2022-12-03T06:17:16.898Z,67.91
2022-12-03T06:20:22.817Z,68.94
2022-12-03T06:23:27.329Z,67.30
2022-12-03T06:26:31.499Z,68.86
2022-12-03T06:29:35.694Z,67.79
2022-12-03T06:32:40.005Z,68.79
2022-12-03T06:35:44.509Z,67.02
2022-12-03T06:38:48.739Z,67.09
2022-12-03T06:41:53.270Z,67.75
2022-12-03T06:44:57.823Z,67.69
2022-12-03T06:48:02.295Z,68.25
2022-12-03T06:51:07.017Z,69.69
2022-12-03T06:54:12.254Z,67.62
2022-12-03T06:57:16.622Z,68.13
2022-12-03T07:00:21.685Z,67.67
2022-12-03T07:03:26.141Z,67.79
2022-12-03T07:06:31.581Z,67.52
2022-12-03T07:09:35.836Z,66.88
2022-12-03T07:12:40.425Z,67.24
2022-12-03T07:15:44.601Z,66.02
2022-12-03T07:18:49.093Z,65.95
2022-12-03T07:21:53.338Z,66.36
2022-12-03T07:24:57.855Z,66.28
2022-12-03T07:28:02.348Z,65.22
2022-12-03T07:31:06.746Z,64.99
2022-12-03T07:34:10.955Z,63.77
2022-12-03T07:37:19.939Z,62.90
2022-12-03T07:40:26.995Z,63.00
2022-12-03T07:43:31.412Z,62.03
2022-12-03T07:46:35.933Z,62.20
2022-12-03T07:49:40.278Z,62.93
2022-12-03T07:52:45.804Z,62.25
2022-12-03T07:55:50.541Z,62.74
2022-12-03T07:58:54.850Z,62.46
2022-12-03T08:01:59.410Z,62.38
2022-12-03T08:05:03.627Z,62.77
2022-12-03T08:08:08.166Z,62.38
2022-12-03T08:11:17.625Z,61.93
2022-12-03T08:14:22.310Z,62.70
2022-12-03T08:17:27.451Z,61.38
2022-12-03T08:20:38.737Z,61.43
2022-12-03T08:23:43.653Z,61.65
2022-12-03T08:26:50.550Z,61.32
2022-12-03T08:30:04.721Z,62.64
2022-12-03T08:33:19.422Z,64.30
2022-12-03T08:36:26.247Z,63.09
2022-12-03T08:39:35.884Z,63.79
2022-12-03T08:42:42.991Z,63.44
2022-12-03T08:45:50.609Z,63.59
2022-12-03T08:48:54.723Z,63.34
2022-12-03T08:52:02.150Z,63.82
2022-12-03T08:55:37.145Z,63.38
2022-12-03T08:58:44.173Z,64.36
2022-12-03T09:01:50.400Z,64.50
2022-12-03T09:04:55.757Z,64.82
2022-12-03T09:08:00.692Z,64.91
2022-12-03T09:11:06.342Z,65.53
2022-12-03T09:14:16.727Z,65.71
2022-12-03T09:17:22.880Z,66.06
2022-12-03T09:20:27.159Z,66.25
2022-12-03T09:23:31.643Z,66.46
2022-12-03T09:26:36.175Z,65.83
2022-12-03T09:29:40.679Z,66.11
2022-12-03T09:32:45.165Z,66.05
2022-12-03T09:35:49.812Z,65.36
2022-12-03T09:38:54.156Z,65.48
2022-12-03T09:41:58.882Z,64.54
2022-12-03T09:45:06.518Z,63.67
2022-12-03T09:48:12.545Z,63.29
2022-12-03T09:51:16.933Z,63.38
2022-12-03T09:54:28.496Z,64.08
2022-12-03T09:57:32.924Z,64.62
2022-12-03T10:00:37.443Z,63.79
2022-12-03T10:03:50.968Z,63.86
2022-12-03T10:06:55.680Z,64.16
2022-12-03T10:10:00.313Z,64.31
2022-12-03T10:13:08.381Z,64.06
2022-12-03T10:16:17.904Z,63.48
2022-12-03T10:19:36.548Z,63.49
2022-12-03T10:22:41.256Z,64.34
2022-12-03T10:26:00.565Z,64.16
2022-12-03T10:29:12.880Z,64.04
2022-12-03T10:32:17.324Z,64.70
2022-12-03T10:35:40.327Z,65.15
2022-12-03T10:38:46.961Z,63.48
2022-12-03T10:41:51.248Z,63.14
2022-12-03T10:45:24.303Z,64.17
2022-12-03T10:48:28.804Z,65.09
2022-12-03T10:51:33.483Z,64.78
2022-12-03T10:54:38.009Z,64.83
2022-12-03T10:57:45.974Z,64.67
2022-12-03T11:00:53.681Z,64.20
2022-12-03T11:04:05.540Z,63.18
2022-12-03T11:07:22.366Z,62.84
2022-12-03T11:10:26.902Z,62.71
2022-12-03T11:13:34.720Z,62.58
2022-12-03T11:16:42.090Z,62.09
2022-12-03T11:19:49.008Z,62.23
2022-12-03T11:22:55.068Z,62.08
2022-12-03T11:25:59.332Z,62.08
2022-12-03T11:29:03.658Z,63.25
2022-12-03T11:32:08.517Z,64.37
2022-12-03T11:35:25.661Z,64.46
2022-12-03T11:38:44.091Z,65.11
2022-12-03T11:42:29.303Z,64.79
2022-12-03T11:45:40.790Z,63.89
2022-12-03T11:48:50.407Z,63.21
2022-12-03T11:51:56.143Z,63.48
2022-12-03T11:55:16.969Z,63.38
2022-12-03T11:58:31.484Z,63.06
2022-12-03T12:01:39.259Z,62.48
2022-12-03T12:04:47.418Z,62.54
2022-12-03T12:07:52.706Z,61.70
2022-12-03T12:10:57.263Z,61.09
2022-12-03T12:14:02.847Z,61.36
2022-12-03T12:17:32.485Z,61.00
2022-12-03T12:20:37.095Z,61.14
2022-12-03T12:23:41.353Z,61.89
2022-12-03T12:26:52.553Z,62.39
2022-12-03T12:29:59.675Z,62.70
2022-12-03T12:33:07.205Z,63.39
2022-12-03T12:36:12.004Z,63.70
2022-12-03T12:39:17.310Z,63.96
2022-12-03T12:42:35.040Z,63.49
2022-12-03T12:45:44.565Z,63.88
2022-12-03T12:48:48.907Z,63.38
2022-12-03T12:51:53.365Z,62.66
2022-12-03T12:55:01.530Z,63.17
2022-12-03T12:58:25.936Z,63.28
2022-12-03T13:01:31.681Z,63.67
2022-12-03T13:04:41.125Z,64.46
2022-12-03T13:07:46.436Z,65.12
2022-12-03T13:10:52.673Z,65.43
2022-12-03T13:13:57.003Z,66.24
2022-12-03T13:17:12.402Z,66.89
2022-12-03T13:20:21.769Z,67.39
2022-12-03T13:23:35.276Z,66.56
2022-12-03T13:26:41.189Z,65.74
2022-12-03T13:29:54.461Z,65.09
2022-12-03T13:32:59.207Z,65.49
2022-12-03T13:36:03.552Z,64.65
2022-12-03T13:39:23.091Z,65.07
2022-12-03T13:42:47.057Z,66.22
2022-12-03T13:45:54.967Z,66.75
2022-12-03T13:49:01.837Z,68.17
2022-12-03T13:52:17.013Z,69.70
2022-12-03T13:55:28.029Z,69.71
2022-12-03T13:58:32.468Z,68.93
2022-12-03T14:01:37.270Z,68.85
2022-12-03T14:04:42.631Z,69.17
2022-12-03T14:07:46.998Z,69.31
2022-12-03T14:10:54.278Z,69.02
2022-12-03T14:14:03.145Z,68.25
2022-12-03T14:17:10.324Z,67.65
2022-12-03T14:20:18.954Z,67.65
2022-12-03T14:23:23.182Z,68.18
2022-12-03T14:26:27.725Z,67.42
2022-12-03T14:29:31.929Z,68.24
2022-12-03T14:32:36.480Z,67.06
2022-12-03T14:35:40.907Z,66.35
2022-12-03T14:38:45.087Z,66.72
2022-12-03T14:42:07.908Z,67.10
2022-12-03T14:45:12.283Z,67.45
2022-12-03T14:48:17.021Z,67.19
2022-12-03T14:51:22.335Z,66.59
2022-12-03T14:54:26.823Z,66.46
2022-12-03T14:57:31.214Z,66.22
2022-12-03T15:00:35.721Z,66.41
2022-12-03T15:03:39.789Z,66.81
2022-12-03T15:06:44.223Z,66.79
2022-12-03T15:09:48.545Z,66.38
2022-12-03T15:12:52.922Z,67.51
2022-12-03T15:15:58.772Z,67.68
2022-12-03T15:19:03.267Z,68.00
2022-12-03T15:22:07.520Z,68.15
2022-12-03T15:25:12.106Z,68.07
2022-12-03T15:28:16.525Z,68.05
2022-12-03T15:31:21.644Z,67.25
2022-12-03T15:34:26.145Z,67.75
2022-12-03T15:37:30.970Z,67.87
2022-12-03T15:40:35.882Z,67.56
2022-12-03T15:43:40.022Z,68.02
2022-12-03T15:46:44.475Z,68.04
2022-12-03T15:49:49.692Z,67.87
2022-12-03T15:52:54.056Z,67.58
2022-12-03T15:55:58.516Z,67.36
2022-12-03T15:59:02.806Z,67.94
2022-12-03T16:02:07.868Z,68.08
2022-12-03T16:05:14.060Z,67.67
2022-12-03T16:08:18.773Z,67.26
2022-12-03T16:11:23.221Z,66.15
2022-12-03T16:14:27.767Z,66.37
2022-12-03T16:17:32.377Z,66.33
2022-12-03T16:20:37.110Z,65.95
2022-12-03T16:23:41.399Z,65.28
2022-12-03T16:26:45.715Z,65.45
2022-12-03T16:29:50.001Z,65.33
2022-12-03T16:32:54.670Z,64.67
2022-12-03T16:35:59.044Z,64.93
2022-12-03T16:39:03.154Z,64.25
2022-12-03T16:42:12.167Z,64.35
2022-12-03T16:45:34.824Z,64.25
2022-12-03T16:48:40.617Z,64.35
2022-12-03T16:51:44.885Z,63.92
2022-12-03T16:54:49.168Z,63.53
2022-12-03T16:57:53.682Z,63.55
2022-12-03T17:00:57.832Z,63.23
2022-12-03T17:04:02.367Z,62.81
2022-12-03T17:07:06.917Z,61.84
2022-12-03T17:10:11.720Z,62.19
2022-12-03T17:13:17.137Z,62.24
2022-12-03T17:16:21.371Z,61.92
2022-12-03T17:19:26.056Z,61.98
2022-12-03T17:22:30.328Z,62.13
2022-12-03T17:25:35.350Z,63.02
2022-12-03T17:28:39.688Z,62.80
2022-12-03T17:31:43.783Z,63.67
2022-12-03T17:34:47.935Z,63.86
2022-12-03T17:37:53.092Z,62.96
2022-12-03T17:40:57.931Z,62.32
2022-12-03T17:44:06.055Z,63.00
2022-12-03T17:47:14.207Z,63.59
2022-12-03T17:50:18.781Z,64.79
2022-12-03T17:53:23.131Z,64.57
2022-12-03T17:56:27.475Z,64.49
2022-12-03T17:59:32.261Z,64.45
2022-12-03T18:02:36.734Z,64.27
2022-12-03T18:05:41.065Z,63.83
2022-12-03T18:08:45.208Z,63.42
2022-12-03T18:11:49.858Z,62.96
2022-12-03T18:14:54.138Z,63.89
2022-12-03T18:17:58.570Z,64.07
2022-12-03T18:21:04.618Z,63.58
2022-12-03T18:24:09.429Z,63.21
2022-12-03T18:27:13.763Z,62.98
2022-12-03T18:30:18.021Z,62.52
2022-12-03T18:33:24.146Z,62.28
2022-12-03T18:36:33.394Z,62.52
2022-12-03T18:39:38.416Z,62.57
2022-12-03T18:42:42.976Z,62.83
2022-12-03T18:45:47.430Z,62.52
2022-12-03T18:48:52.166Z,62.07
2022-12-03T18:51:59.620Z,62.51
2022-12-03T18:55:05.596Z,62.42
2022-12-03T18:58:09.916Z,62.66
2022-12-03T19:01:20.409Z,62.46
2022-12-03T19:04:26.276Z,62.47
2022-12-03T19:07:30.919Z,61.61
2022-12-03T19:10:35.206Z,61.95
2022-12-03T19:13:40.554Z,60.49
2022-12-03T19:16:45.557Z,61.10
2022-12-03T19:19:49.960Z,60.49
2022-12-03T19:22:54.237Z,60.32
2022-12-03T19:26:03.539Z,61.85
2022-12-03T19:29:07.888Z,60.94
2022-12-03T19:32:12.131Z,61.65
2022-12-03T19:35:16.851Z,61.45
2022-12-03T19:38:21.154Z,60.97
2022-12-03T19:41:31.286Z,62.06
2022-12-03T19:44:36.012Z,61.87
2022-12-03T19:47:40.357Z,60.97
2022-12-03T19:51:13.577Z,60.89
2022-12-03T19:54:20.725Z,60.35
2022-12-03T19:57:24.846Z,60.48
2022-12-03T20:00:29.521Z,60.06
2022-12-03T20:03:33.814Z,59.39
2022-12-03T20:06:39.857Z,58.53
2022-12-03T20:09:44.280Z,59.59
2022-12-03T20:12:48.677Z,57.92
2022-12-03T20:15:52.848Z,57.87
2022-12-03T20:19:00.543Z,58.12
2022-12-03T20:22:04.982Z,57.41
2022-12-03T20:25:09.521Z,57.37
2022-12-03T20:28:13.964Z,57.63
2022-12-03T20:31:21.253Z,57.62
2022-12-03T20:34:25.578Z,58.25
2022-12-03T20:37:29.697Z,56.49
2022-12-03T20:40:38.093Z,57.73
2022-12-03T20:43:42.399Z,56.97
2022-12-03T20:46:47.086Z,58.19
2022-12-03T20:49:51.268Z,56.20
2022-12-03T20:53:16.707Z,56.95
2022-12-03T20:56:26.736Z,58.21
2022-12-03T20:59:33.756Z,56.39
2022-12-03T21:02:39.506Z,57.15
2022-12-03T21:05:45.032Z,57.69
2022-12-03T21:08:49.868Z,57.97
2022-12-03T21:11:54.207Z,58.40
2022-12-03T21:14:58.579Z,58.28
2022-12-03T21:18:03.301Z,59.07
2022-12-03T21:21:08.388Z,58.05
2022-12-03T21:24:14.423Z,58.67
2022-12-03T21:27:21.798Z,58.86
2022-12-03T21:30:26.602Z,58.25
2022-12-03T21:33:31.721Z,58.67
2022-12-03T21:36:36.344Z,58.83
2022-12-03T21:39:40.685Z,58.97
2022-12-03T21:42:45.083Z,59.19
2022-12-03T21:45:49.431Z,58.35
2022-12-03T21:48:53.835Z,58.62
2022-12-03T21:51:58.174Z,58.97
2022-12-03T21:55:02.733Z,58.72
2022-12-03T21:58:08.044Z,57.96
2022-12-03T22:01:16.228Z,58.00
2022-12-03T22:04:20.477Z,58.47
2022-12-03T22:07:24.727Z,57.86
2022-12-03T22:10:29.084Z,58.39
2022-12-03T22:13:33.951Z,58.52
2022-12-03T22:16:38.234Z,58.59
2022-12-03T22:19:43.214Z,59.31
2022-12-03T22:22:47.291Z,58.86
2022-12-03T22:26:00.561Z,58.19
2022-12-03T22:29:05.220Z,57.93
2022-12-03T22:32:09.905Z,57.13
2022-12-03T22:35:14.529Z,58.37
2022-12-03T22:38:18.863Z,58.41
2022-12-03T22:41:23.435Z,58.51
2022-12-03T22:44:27.864Z,58.09
2022-12-03T22:47:32.472Z,58.35
2022-12-03T22:50:43.209Z,56.78
2022-12-03T22:53:47.858Z,57.53
2022-12-03T22:56:52.612Z,56.90
2022-12-03T22:59:57.300Z,56.88
2022-12-03T23:03:01.954Z,58.25
2022-12-03T23:06:13.267Z,56.61
2022-12-03T23:09:17.481Z,57.90
2022-12-03T23:12:21.932Z,58.04
2022-12-03T23:15:26.447Z,57.69
2022-12-03T23:18:30.940Z,57.83
2022-12-03T23:21:36.646Z,57.36
2022-12-03T23:24:41.232Z,59.40
2022-12-03T23:27:46.202Z,60.13
2022-12-03T23:30:50.580Z,60.04
2022-12-03T23:33:55.766Z,60.17
2022-12-03T23:37:00.283Z,60.84
2022-12-03T23:40:08.103Z,58.60
2022-12-03T23:43:12.337Z,57.88
2022-12-03T23:46:22.570Z,56.03
2022-12-03T23:49:27.352Z,54.57
2022-12-03T23:52:31.813Z,54.06
2022-12-03T23:55:39.819Z,55.79
2022-12-03T23:58:45.863Z,57.04
